Portada
METAR-TAF:

METAR-TAF

Aeroports :

Aeroport Internacional de Bahrain

Bahrain, Bahrain

latitud: 26-16N, longitud: 050-39E, altitud: 2 m

Observació

L'informe es va fer fa 16 minuts, a les 08:30 UTC
Vent 6 kt del Nord-Oest, variant entre Oest i Nord
Temperatura 39°C
Humitat 57%
Pressió 997 hPa
Visibilitat: 8000 m

METAR: OBBI 190830Z 32006KT 280V010 8000 NSC 39/29 Q0997 NOSIG

Hora: 11:46 (08:46 UTC)

Pronòstic

L'informe es va fer fa 3 hores i 46 minuts, a les 05:00 UTC
Pronòstic vàlid del 19 a les 06 UTC al 20 a les 12 UTC
Vent 5 kt amb direcció variable
Visibilitat: 9000 m
Evolucionant progressivament
l' 19 a les 09 UTC al 19 a les 11 UTC
Vent 10 kt del Est
Evolucionant progressivament
l' 19 a les 22 UTC al 20 a les 00 UTC
Vent 5 kt amb direcció variable

TAF: OBBI 190500Z 1906/2012 VRB05KT 9000 NSC BECMG 1909/1911 08010KT BECMG 1922/2000 VRB05KT

Observacions i pronòstics meteorològics de més de 4000 aeroports (METAR i TAF).

Les estacions disponibles són els punts grocs i vermells al mapa.

Posi el ratolí al punt desitjat per veure el nom de l'estació.

Feu clic per veure les observacions i els pronòstics meteorològics.

Per canviar el mapa: feu clic els botons verds amb una creu de color negre per apropar; al botó verd amb un guió per allunyar la imatge; o en les fletxes verdes per a mapes adjacents.


METAR-TAF: